Oceanus — WXAQ — position and weather

sailwx.info

Track history (hours):
 
Tides and Currents Weather Stations Pressure Air Temp Water Temp Dewpoint Dewpoint Depression Visibility Wind Speed Wind Dir Waves Ship Positions

Oceanographic research ship Oceanus (USA)

Detailed information on ship capabilities available from University of Delaware's Ocean Information Center and ARCUS's ALIAS (Arctic Logistics Information and Support) project.

Owner: Oregon State University, Newport, OR. More information available from US FCC via Universal Licensing System.

Last reported at 2018-Feb-10 02:57 UTC. Time now 2018-Feb-20 09:43 UTC.
Position N 45°36' W 124°33'.
Warning: this ship's position is 10 days out of date.

Length 23 m; draft 5.3 m.

Type: Other ship. MMSI: 367977000.

Date/timePositionNaut miles runAvg speedWind from/ knotsBaromVisibWave heightAir tempDewpointWater temp
2018-Feb-10 02:57N 45°36' W 124°33'511.7
2018-Feb-10 02:30N 45°42' W 124°33'2 4.6
2018-Feb-10 02:00N 45°44' W 124°33'0 0.1
2018-Feb-10 01:30N 45°44' W 124°33'0 0.1
2018-Feb-10 01:00N 45°44' W 124°33'1 1.2
2018-Feb-10 00:30N 45°44' W 124°32'3 6.2
2018-Feb-10 00:00N 45°44' W 124°28'1 2.5
2018-Feb-09 23:30N 45°44' W 124°26'4 4.9
2018-Feb-09 22:45N 45°44' W 124°21'0 1.8
2018-Feb-09 22:30N 45°44' W 124°20'5 3.4
2018-Feb-09 21:00N 45°44' W 124°13'1 2.3
2018-Feb-09 20:30N 45°44' W 124°11'3 2.0
2018-Feb-09 19:00N 45°44' W 124°07'3 2.1
2018-Feb-09 17:30N 45°44' W 124°02'1 1.1
2018-Feb-09 17:00N 45°44' W 124°01'1 2.5
2018-Feb-09 16:30N 45°44' W 123°60'1 1.6
2018-Feb-09 16:00N 45°44' W 123°58'5 4.9
2018-Feb-09 15:00N 45°44' W 124°05'4 4.4
2018-Feb-09 14:00N 45°44' W 124°12'12 8.2
2018-Feb-09 12:30N 45°44' W 124°29'7 6.7
2018-Feb-09 11:30N 45°43' W 124°39'1010.5
2018-Feb-09 10:30N 45°32' W 124°39'  
Track history (hours):
 
Tides and Currents Weather Stations Pressure Air Temp Water Temp Dewpoint Dewpoint Depression Visibility Wind Speed Wind Dir Waves Ship Positions

Oceanographic research ship Oceanus (USA)

Detailed information on ship capabilities available from University of Delaware's Ocean Information Center and ARCUS's ALIAS (Arctic Logistics Information and Support) project.

Owner: Oregon State University, Newport, OR. More information available from US FCC via Universal Licensing System.

Last reported at 2018-Feb-10 02:57 UTC. Time now 2018-Feb-20 09:43 UTC.
Position N 45°36' W 124°33'.
Warning: this ship's position is 10 days out of date.

Length 23 m; draft 5.3 m.

Type: Other ship. MMSI: 367977000.

Date/timePositionNaut miles runAvg speedWind from/ knotsBaromVisibWave heightAir tempDewpointWater temp
2018-Feb-10 02:57N 45°36' W 124°33'511.7
2018-Feb-10 02:30N 45°42' W 124°33'2 4.6
2018-Feb-10 02:00N 45°44' W 124°33'0 0.1
2018-Feb-10 01:30N 45°44' W 124°33'0 0.1
2018-Feb-10 01:00N 45°44' W 124°33'1 1.2
2018-Feb-10 00:30N 45°44' W 124°32'3 6.2
2018-Feb-10 00:00N 45°44' W 124°28'1 2.5
2018-Feb-09 23:30N 45°44' W 124°26'4 4.9
2018-Feb-09 22:45N 45°44' W 124°21'0 1.8
2018-Feb-09 22:30N 45°44' W 124°20'5 3.4
2018-Feb-09 21:00N 45°44' W 124°13'1 2.3
2018-Feb-09 20:30N 45°44' W 124°11'3 2.0
2018-Feb-09 19:00N 45°44' W 124°07'3 2.1
2018-Feb-09 17:30N 45°44' W 124°02'1 1.1
2018-Feb-09 17:00N 45°44' W 124°01'1 2.5
2018-Feb-09 16:30N 45°44' W 123°60'1 1.6
2018-Feb-09 16:00N 45°44' W 123°58'5 4.9
2018-Feb-09 15:00N 45°44' W 124°05'4 4.4
2018-Feb-09 14:00N 45°44' W 124°12'12 8.2
2018-Feb-09 12:30N 45°44' W 124°29'7 6.7
2018-Feb-09 11:30N 45°43' W 124°39'1010.5
2018-Feb-09 10:30N 45°32' W 124°39'  

Dump ship's entire track history